sensor_id;sensor_type;location;lat;lon;timestamp;P1;durP1;ratioP1;P2;durP2;ratioP2
30048;SDS011;16879;50.852;15.602;2022-08-04T00:00:33;3.25;;;3.05;;
30048;SDS011;16879;50.852;15.602;2022-08-04T00:03:10;4.25;;;3.53;;
30048;SDS011;16879;50.852;15.602;2022-08-04T00:08:11;3.15;;;2.95;;
30048;SDS011;16879;50.852;15.602;2022-08-04T00:10:53;5.18;;;3.45;;
30048;SDS011;16879;50.852;15.602;2022-08-04T00:13:23;4.13;;;3.83;;
30048;SDS011;16879;50.852;15.602;2022-08-04T00:15:52;4.78;;;4.38;;
30048;SDS011;16879;50.852;15.602;2022-08-04T00:18:35;5.70;;;4.38;;
30048;SDS011;16879;50.852;15.602;2022-08-04T00:21:06;3.90;;;3.60;;
30048;SDS011;16879;50.852;15.602;2022-08-04T00:23:38;3.70;;;3.40;;
30048;SDS011;16879;50.852;15.602;2022-08-04T00:26:07;6.40;;;4.13;;
30048;SDS011;16879;50.852;15.602;2022-08-04T00:28:34;4.30;;;3.90;;
30048;SDS011;16879;50.852;15.602;2022-08-04T00:31:02;4.97;;;4.00;;
30048;SDS011;16879;50.852;15.602;2022-08-04T00:33:33;4.10;;;3.60;;
30048;SDS011;16879;50.852;15.602;2022-08-04T00:35:59;3.75;;;3.45;;
30048;SDS011;16879;50.852;15.602;2022-08-04T00:38:25;4.30;;;3.90;;
30048;SDS011;16879;50.852;15.602;2022-08-04T00:41:06;3.95;;;3.55;;
30048;SDS011;16879;50.852;15.602;2022-08-04T00:44:06;3.88;;;3.55;;
30048;SDS011;16879;50.852;15.602;2022-08-04T00:50:01;3.30;;;3.10;;
30048;SDS011;16879;50.852;15.602;2022-08-04T01:01:02;4.45;;;3.20;;
30048;SDS011;16879;50.852;15.602;2022-08-04T01:17:42;4.25;;;3.22;;
30048;SDS011;16879;50.852;15.602;2022-08-04T01:20:32;4.05;;;2.88;;
30048;SDS011;16879;50.852;15.602;2022-08-04T01:26:17;7.07;;;3.47;;
30048;SDS011;16879;50.852;15.602;2022-08-04T01:29:14;5.45;;;4.70;;
30048;SDS011;16879;50.852;15.602;2022-08-04T01:34:22;4.07;;;3.67;;
30048;SDS011;16879;50.852;15.602;2022-08-04T01:37:31;4.43;;;4.00;;
30048;SDS011;16879;50.852;15.602;2022-08-04T01:40:00;4.07;;;3.33;;
30048;SDS011;16879;50.852;15.602;2022-08-04T01:42:30;5.78;;;3.78;;
30048;SDS011;16879;50.852;15.602;2022-08-04T01:44:59;7.43;;;4.20;;
30048;SDS011;16879;50.852;15.602;2022-08-04T01:47:28;3.70;;;3.40;;
30048;SDS011;16879;50.852;15.602;2022-08-04T01:50:01;3.88;;;3.53;;
30048;SDS011;16879;50.852;15.602;2022-08-04T01:52:37;3.97;;;3.58;;
30048;SDS011;16879;50.852;15.602;2022-08-04T01:55:04;4.78;;;3.95;;
30048;SDS011;16879;50.852;15.602;2022-08-04T01:57:34;5.78;;;3.78;;
30048;SDS011;16879;50.852;15.602;2022-08-04T02:00:07;3.80;;;3.50;;
30048;SDS011;16879;50.852;15.602;2022-08-04T02:02:34;3.97;;;3.67;;
30048;SDS011;16879;50.852;15.602;2022-08-04T02:05:00;3.85;;;3.40;;
30048;SDS011;16879;50.852;15.602;2022-08-04T02:19:03;5.65;;;3.40;;
30048;SDS011;16879;50.852;15.602;2022-08-04T02:21:54;3.92;;;3.63;;
30048;SDS011;16879;50.852;15.602;2022-08-04T02:24:23;3.88;;;3.47;;
30048;SDS011;16879;50.852;15.602;2022-08-04T02:26:52;5.72;;;3.33;;
30048;SDS011;16879;50.852;15.602;2022-08-04T02:32:02;3.83;;;3.53;;
30048;SDS011;16879;50.852;15.602;2022-08-04T02:36:59;4.65;;;4.10;;
30048;SDS011;16879;50.852;15.602;2022-08-04T02:39:30;4.07;;;3.67;;
30048;SDS011;16879;50.852;15.602;2022-08-04T02:41:58;4.43;;;4.03;;
30048;SDS011;16879;50.852;15.602;2022-08-04T02:44:28;4.78;;;3.72;;
30048;SDS011;16879;50.852;15.602;2022-08-04T02:46:56;5.60;;;3.50;;
30048;SDS011;16879;50.852;15.602;2022-08-04T02:49:24;6.35;;;3.05;;
30048;SDS011;16879;50.852;15.602;2022-08-04T02:51:54;5.82;;;3.47;;
30048;SDS011;16879;50.852;15.602;2022-08-04T02:54:22;6.28;;;3.80;;
30048;SDS011;16879;50.852;15.602;2022-08-04T02:56:52;5.75;;;3.95;;
30048;SDS011;16879;50.852;15.602;2022-08-04T02:59:22;4.45;;;4.05;;
30048;SDS011;16879;50.852;15.602;2022-08-04T03:01:52;4.90;;;4.00;;
30048;SDS011;16879;50.852;15.602;2022-08-04T03:05:21;4.32;;;3.95;;
30048;SDS011;16879;50.852;15.602;2022-08-04T03:22:26;4.47;;;4.05;;
30048;SDS011;16879;50.852;15.602;2022-08-04T03:50:12;3.80;;;3.50;;
30048;SDS011;16879;50.852;15.602;2022-08-04T03:54:16;4.75;;;4.28;;
30048;SDS011;16879;50.852;15.602;2022-08-04T04:02:14;3.67;;;3.38;;
30048;SDS011;16879;50.852;15.602;2022-08-04T04:05:29;4.70;;;4.30;;
30048;SDS011;16879;50.852;15.602;2022-08-04T04:08:46;5.22;;;4.00;;
30048;SDS011;16879;50.852;15.602;2022-08-04T04:11:14;4.28;;;3.88;;
30048;SDS011;16879;50.852;15.602;2022-08-04T04:13:49;4.43;;;4.03;;
30048;SDS011;16879;50.852;15.602;2022-08-04T04:16:28;4.97;;;3.70;;
30048;SDS011;16879;50.852;15.602;2022-08-04T04:30:06;4.07;;;3.70;;
30048;SDS011;16879;50.852;15.602;2022-08-04T04:32:46;4.82;;;3.90;;
30048;SDS011;16879;50.852;15.602;2022-08-04T04:35:34;4.50;;;3.55;;
30048;SDS011;16879;50.852;15.602;2022-08-04T04:46:29;4.72;;;3.95;;
30048;SDS011;16879;50.852;15.602;2022-08-04T04:48:58;3.60;;;3.30;;
30048;SDS011;16879;50.852;15.602;2022-08-04T04:51:41;3.83;;;3.47;;
30048;SDS011;16879;50.852;15.602;2022-08-04T04:54:32;4.15;;;3.60;;
30048;SDS011;16879;50.852;15.602;2022-08-04T04:57:17;3.50;;;3.20;;
30048;SDS011;16879;50.852;15.602;2022-08-04T05:07:27;5.15;;;4.70;;
30048;SDS011;16879;50.852;15.602;2022-08-04T05:12:51;5.63;;;4.20;;
30048;SDS011;16879;50.852;15.602;2022-08-04T05:15:34;6.13;;;4.07;;
30048;SDS011;16879;50.852;15.602;2022-08-04T05:18:05;5.05;;;4.55;;
30048;SDS011;16879;50.852;15.602;2022-08-04T05:20:40;4.60;;;4.20;;
30048;SDS011;16879;50.852;15.602;2022-08-04T05:25:40;4.97;;;4.57;;
30048;SDS011;16879;50.852;15.602;2022-08-04T05:31:03;5.47;;;5.03;;
30048;SDS011;16879;50.852;15.602;2022-08-04T05:36:16;4.55;;;4.15;;
30048;SDS011;16879;50.852;15.602;2022-08-04T05:38:45;6.47;;;4.65;;
30048;SDS011;16879;50.852;15.602;2022-08-04T05:41:15;4.78;;;4.38;;
30048;SDS011;16879;50.852;15.602;2022-08-04T05:43:42;4.45;;;4.00;;
30048;SDS011;16879;50.852;15.602;2022-08-04T05:46:09;6.32;;;5.82;;
30048;SDS011;16879;50.852;15.602;2022-08-04T05:48:37;5.07;;;4.68;;
30048;SDS011;16879;50.852;15.602;2022-08-04T05:51:04;5.28;;;4.72;;
30048;SDS011;16879;50.852;15.602;2022-08-04T05:53:34;4.43;;;4.03;;
30048;SDS011;16879;50.852;15.602;2022-08-04T05:56:02;5.25;;;4.75;;
30048;SDS011;16879;50.852;15.602;2022-08-04T05:58:29;6.28;;;5.45;;
30048;SDS011;16879;50.852;15.602;2022-08-04T06:00:57;7.97;;;5.28;;
30048;SDS011;16879;50.852;15.602;2022-08-04T06:03:24;7.03;;;5.78;;
30048;SDS011;16879;50.852;15.602;2022-08-04T06:05:53;6.28;;;5.78;;
30048;SDS011;16879;50.852;15.602;2022-08-04T06:08:21;8.35;;;5.10;;
30048;SDS011;16879;50.852;15.602;2022-08-04T06:10:48;7.03;;;6.32;;
30048;SDS011;16879;50.852;15.602;2022-08-04T06:13:18;6.30;;;5.80;;
30048;SDS011;16879;50.852;15.602;2022-08-04T06:15:46;6.25;;;5.65;;
30048;SDS011;16879;50.852;15.602;2022-08-04T06:18:15;5.78;;;5.28;;
30048;SDS011;16879;50.852;15.602;2022-08-04T06:20:42;4.88;;;4.45;;
30048;SDS011;16879;50.852;15.602;2022-08-04T06:23:14;5.15;;;4.63;;
30048;SDS011;16879;50.852;15.602;2022-08-04T06:25:44;5.03;;;4.53;;
30048;SDS011;16879;50.852;15.602;2022-08-04T06:28:12;6.72;;;4.97;;
30048;SDS011;16879;50.852;15.602;2022-08-04T06:30:40;5.40;;;4.93;;
30048;SDS011;16879;50.852;15.602;2022-08-04T06:33:11;4.13;;;3.80;;
30048;SDS011;16879;50.852;15.602;2022-08-04T06:35:52;6.10;;;4.82;;
30048;SDS011;16879;50.852;15.602;2022-08-04T06:38:20;5.60;;;4.95;;
30048;SDS011;16879;50.852;15.602;2022-08-04T06:40:50;8.38;;;4.80;;
30048;SDS011;16879;50.852;15.602;2022-08-04T06:43:17;4.90;;;4.50;;
30048;SDS011;16879;50.852;15.602;2022-08-04T06:45:44;4.93;;;4.43;;
30048;SDS011;16879;50.852;15.602;2022-08-04T06:48:11;6.57;;;4.47;;
30048;SDS011;16879;50.852;15.602;2022-08-04T06:50:40;5.30;;;4.68;;
30048;SDS011;16879;50.852;15.602;2022-08-04T06:53:09;4.43;;;4.03;;
30048;SDS011;16879;50.852;15.602;2022-08-04T06:55:35;6.22;;;4.95;;
30048;SDS011;16879;50.852;15.602;2022-08-04T06:58:02;6.10;;;5.45;;
30048;SDS011;16879;50.852;15.602;2022-08-04T07:00:29;5.53;;;5.03;;
30048;SDS011;16879;50.852;15.602;2022-08-04T07:02:56;4.93;;;4.45;;
30048;SDS011;16879;50.852;15.602;2022-08-04T07:05:23;5.85;;;4.50;;
30048;SDS011;16879;50.852;15.602;2022-08-04T07:07:49;4.68;;;4.28;;
30048;SDS011;16879;50.852;15.602;2022-08-04T07:10:15;5.78;;;3.95;;
30048;SDS011;16879;50.852;15.602;2022-08-04T07:12:42;4.75;;;4.35;;
30048;SDS011;16879;50.852;15.602;2022-08-04T07:15:09;4.38;;;4.07;;
30048;SDS011;16879;50.852;15.602;2022-08-04T07:17:36;5.53;;;4.40;;
30048;SDS011;16879;50.852;15.602;2022-08-04T07:20:04;5.75;;;4.10;;
30048;SDS011;16879;50.852;15.602;2022-08-04T07:22:30;4.25;;;3.95;;
30048;SDS011;16879;50.852;15.602;2022-08-04T07:24:58;5.38;;;4.93;;
30048;SDS011;16879;50.852;15.602;2022-08-04T07:27:24;4.30;;;3.90;;
30048;SDS011;16879;50.852;15.602;2022-08-04T07:29:51;4.72;;;4.32;;
30048;SDS011;16879;50.852;15.602;2022-08-04T07:32:21;4.22;;;3.80;;
30048;SDS011;16879;50.852;15.602;2022-08-04T07:34:48;5.38;;;3.65;;
30048;SDS011;16879;50.852;15.602;2022-08-04T07:37:14;5.43;;;4.10;;
30048;SDS011;16879;50.852;15.602;2022-08-04T07:39:40;4.28;;;3.88;;
30048;SDS011;16879;50.852;15.602;2022-08-04T07:42:06;3.60;;;3.30;;
30048;SDS011;16879;50.852;15.602;2022-08-04T07:44:33;3.85;;;3.55;;
30048;SDS011;16879;50.852;15.602;2022-08-04T07:47:00;4.53;;;4.15;;
30048;SDS011;16879;50.852;15.602;2022-08-04T07:49:29;4.75;;;4.25;;
30048;SDS011;16879;50.852;15.602;2022-08-04T07:51:55;4.22;;;3.83;;
30048;SDS011;16879;50.852;15.602;2022-08-04T07:54:21;4.78;;;4.38;;
30048;SDS011;16879;50.852;15.602;2022-08-04T07:56:47;7.45;;;3.95;;
30048;SDS011;16879;50.852;15.602;2022-08-04T07:59:16;4.05;;;3.72;;
30048;SDS011;16879;50.852;15.602;2022-08-04T08:01:45;4.53;;;3.30;;
30048;SDS011;16879;50.852;15.602;2022-08-04T08:04:11;3.88;;;3.50;;
30048;SDS011;16879;50.852;15.602;2022-08-04T08:06:40;4.10;;;3.70;;
30048;SDS011;16879;50.852;15.602;2022-08-04T08:09:07;3.47;;;3.20;;
30048;SDS011;16879;50.852;15.602;2022-08-04T08:11:34;3.70;;;3.40;;
30048;SDS011;16879;50.852;15.602;2022-08-04T08:14:01;9.45;;;4.57;;
30048;SDS011;16879;50.852;15.602;2022-08-04T08:16:27;4.22;;;3.92;;
30048;SDS011;16879;50.852;15.602;2022-08-04T08:18:54;4.15;;;3.80;;
30048;SDS011;16879;50.852;15.602;2022-08-04T08:21:20;4.95;;;4.00;;
30048;SDS011;16879;50.852;15.602;2022-08-04T08:23:46;5.68;;;4.43;;
30048;SDS011;16879;50.852;15.602;2022-08-04T08:26:13;5.57;;;3.97;;
30048;SDS011;16879;50.852;15.602;2022-08-04T08:28:39;4.35;;;3.90;;
30048;SDS011;16879;50.852;15.602;2022-08-04T08:31:05;5.18;;;4.07;;
30048;SDS011;16879;50.852;15.602;2022-08-04T08:33:31;6.50;;;3.92;;
30048;SDS011;16879;50.852;15.602;2022-08-04T08:36:00;3.33;;;3.05;;
30048;SDS011;16879;50.852;15.602;2022-08-04T08:47:08;4.82;;;3.80;;
30048;SDS011;16879;50.852;15.602;2022-08-04T08:49:57;4.10;;;3.40;;
30048;SDS011;16879;50.852;15.602;2022-08-04T09:11:42;3.45;;;2.60;;
30048;SDS011;16879;50.852;15.602;2022-08-04T09:14:25;2.65;;;2.33;;
30048;SDS011;16879;50.852;15.602;2022-08-04T09:17:04;4.65;;;3.20;;
30048;SDS011;16879;50.852;15.602;2022-08-04T09:19:43;5.10;;;3.10;;
30048;SDS011;16879;50.852;15.602;2022-08-04T09:22:18;4.50;;;2.60;;
30048;SDS011;16879;50.852;15.602;2022-08-04T09:25:03;2.95;;;2.75;;
30048;SDS011;16879;50.852;15.602;2022-08-04T09:27:49;2.25;;;2.13;;
30048;SDS011;16879;50.852;15.602;2022-08-04T09:30:19;3.72;;;2.55;;
30048;SDS011;16879;50.852;15.602;2022-08-04T09:35:39;2.70;;;2.50;;
30048;SDS011;16879;50.852;15.602;2022-08-04T09:46:09;3.20;;;2.17;;
30048;SDS011;16879;50.852;15.602;2022-08-04T09:54:22;3.03;;;2.30;;
30048;SDS011;16879;50.852;15.602;2022-08-04T10:00:02;2.65;;;2.45;;
30048;SDS011;16879;50.852;15.602;2022-08-04T10:05:20;2.97;;;2.63;;
30048;SDS011;16879;50.852;15.602;2022-08-04T10:10:40;2.60;;;2.40;;
30048;SDS011;16879;50.852;15.602;2022-08-04T10:13:50;2.45;;;2.25;;
30048;SDS011;16879;50.852;15.602;2022-08-04T10:27:32;2.20;;;2.10;;
30048;SDS011;16879;50.852;15.602;2022-08-04T10:30:03;3.50;;;2.67;;
30048;SDS011;16879;50.852;15.602;2022-08-04T10:35:08;4.07;;;2.30;;
30048;SDS011;16879;50.852;15.602;2022-08-04T10:40:19;2.47;;;2.28;;
30048;SDS011;16879;50.852;15.602;2022-08-04T10:45:45;2.30;;;2.10;;
30048;SDS011;16879;50.852;15.602;2022-08-04T10:48:22;2.53;;;2.30;;
30048;SDS011;16879;50.852;15.602;2022-08-04T10:51:48;2.50;;;2.40;;
30048;SDS011;16879;50.852;15.602;2022-08-04T10:54:07;2.45;;;2.25;;
30048;SDS011;16879;50.852;15.602;2022-08-04T10:56:39;3.88;;;2.42;;
30048;SDS011;16879;50.852;15.602;2022-08-04T10:59:08;2.28;;;2.17;;
30048;SDS011;16879;50.852;15.602;2022-08-04T11:01:41;2.40;;;2.20;;
30048;SDS011;16879;50.852;15.602;2022-08-04T11:04:15;1.95;;;1.85;;
30048;SDS011;16879;50.852;15.602;2022-08-04T11:06:48;2.47;;;2.38;;
30048;SDS011;16879;50.852;15.602;2022-08-04T11:09:15;2.40;;;2.20;;
30048;SDS011;16879;50.852;15.602;2022-08-04T11:11:49;2.35;;;2.15;;
30048;SDS011;16879;50.852;15.602;2022-08-04T11:14:26;3.85;;;2.75;;
30048;SDS011;16879;50.852;15.602;2022-08-04T11:17:02;3.20;;;2.22;;
30048;SDS011;16879;50.852;15.602;2022-08-04T11:19:45;2.10;;;2.00;;
30048;SDS011;16879;50.852;15.602;2022-08-04T11:22:37;2.55;;;2.40;;
30048;SDS011;16879;50.852;15.602;2022-08-04T11:25:18;2.35;;;2.15;;
30048;SDS011;16879;50.852;15.602;2022-08-04T11:27:54;7.68;;;2.88;;
30048;SDS011;16879;50.852;15.602;2022-08-04T11:30:23;3.35;;;2.25;;
30048;SDS011;16879;50.852;15.602;2022-08-04T11:35:28;3.17;;;2.80;;
30048;SDS011;16879;50.852;15.602;2022-08-04T11:41:09;2.50;;;2.30;;
30048;SDS011;16879;50.852;15.602;2022-08-04T11:43:48;2.38;;;2.22;;
30048;SDS011;16879;50.852;15.602;2022-08-04T11:46:23;2.72;;;2.53;;
30048;SDS011;16879;50.852;15.602;2022-08-04T11:49:07;2.20;;;2.10;;
30048;SDS011;16879;50.852;15.602;2022-08-04T11:51:49;2.10;;;2.00;;
30048;SDS011;16879;50.852;15.602;2022-08-04T11:54:17;2.25;;;2.15;;
30048;SDS011;16879;50.852;15.602;2022-08-04T11:56:44;2.67;;;2.10;;
30048;SDS011;16879;50.852;15.602;2022-08-04T11:59:10;2.50;;;2.33;;
30048;SDS011;16879;50.852;15.602;2022-08-04T12:04:27;2.22;;;2.13;;
30048;SDS011;16879;50.852;15.602;2022-08-04T12:07:04;2.55;;;2.35;;
30048;SDS011;16879;50.852;15.602;2022-08-04T12:12:38;3.00;;;2.80;;
30048;SDS011;16879;50.852;15.602;2022-08-04T12:15:30;1.83;;;1.73;;
30048;SDS011;16879;50.852;15.602;2022-08-04T12:20:28;2.35;;;2.15;;
30048;SDS011;16879;50.852;15.602;2022-08-04T12:22:56;2.58;;;2.42;;
30048;SDS011;16879;50.852;15.602;2022-08-04T12:25:23;2.67;;;2.47;;
30048;SDS011;16879;50.852;15.602;2022-08-04T12:27:56;3.20;;;2.30;;
30048;SDS011;16879;50.852;15.602;2022-08-04T12:30:32;2.10;;;2.00;;
30048;SDS011;16879;50.852;15.602;2022-08-04T12:33:04;2.03;;;1.92;;
30048;SDS011;16879;50.852;15.602;2022-08-04T12:38:11;2.25;;;2.15;;
30048;SDS011;16879;50.852;15.602;2022-08-04T12:40:44;2.30;;;2.20;;
30048;SDS011;16879;50.852;15.602;2022-08-04T12:43:53;2.45;;;2.33;;
30048;SDS011;16879;50.852;15.602;2022-08-04T12:46:04;2.67;;;2.05;;
30048;SDS011;16879;50.852;15.602;2022-08-04T12:48:34;5.78;;;3.15;;
30048;SDS011;16879;50.852;15.602;2022-08-04T12:51:00;2.15;;;2.05;;
30048;SDS011;16879;50.852;15.602;2022-08-04T12:53:29;3.50;;;2.30;;
30048;SDS011;16879;50.852;15.602;2022-08-04T12:55:58;2.97;;;2.50;;
30048;SDS011;16879;50.852;15.602;2022-08-04T12:58:26;3.53;;;2.50;;
30048;SDS011;16879;50.852;15.602;2022-08-04T13:00:58;2.75;;;2.55;;
30048;SDS011;16879;50.852;15.602;2022-08-04T13:03:28;3.15;;;2.90;;
30048;SDS011;16879;50.852;15.602;2022-08-04T13:06:01;2.72;;;2.55;;
30048;SDS011;16879;50.852;15.602;2022-08-04T13:08:28;2.70;;;2.50;;
30048;SDS011;16879;50.852;15.602;2022-08-04T13:11:02;2.67;;;2.50;;
30048;SDS011;16879;50.852;15.602;2022-08-04T13:13:30;2.42;;;2.22;;
30048;SDS011;16879;50.852;15.602;2022-08-04T13:16:03;2.40;;;2.30;;
30048;SDS011;16879;50.852;15.602;2022-08-04T13:18:32;2.10;;;2.00;;
30048;SDS011;16879;50.852;15.602;2022-08-04T13:21:19;2.70;;;2.50;;
30048;SDS011;16879;50.852;15.602;2022-08-04T13:23:47;3.38;;;2.50;;
30048;SDS011;16879;50.852;15.602;2022-08-04T13:26:26;2.45;;;2.25;;
30048;SDS011;16879;50.852;15.602;2022-08-04T13:28:53;3.42;;;3.10;;
30048;SDS011;16879;50.852;15.602;2022-08-04T13:31:22;3.28;;;3.08;;
30048;SDS011;16879;50.852;15.602;2022-08-04T13:33:52;3.13;;;2.60;;
30048;SDS011;16879;50.852;15.602;2022-08-04T13:36:26;4.60;;;2.67;;
30048;SDS011;16879;50.852;15.602;2022-08-04T13:38:54;4.28;;;3.03;;
30048;SDS011;16879;50.852;15.602;2022-08-04T13:41:24;3.60;;;2.90;;
30048;SDS011;16879;50.852;15.602;2022-08-04T13:43:57;3.20;;;3.00;;
30048;SDS011;16879;50.852;15.602;2022-08-04T13:46:27;3.10;;;2.90;;
30048;SDS011;16879;50.852;15.602;2022-08-04T13:48:54;2.97;;;2.78;;
30048;SDS011;16879;50.852;15.602;2022-08-04T13:51:22;4.43;;;2.72;;
30048;SDS011;16879;50.852;15.602;2022-08-04T13:53:54;6.85;;;3.05;;
30048;SDS011;16879;50.852;15.602;2022-08-04T13:56:25;2.58;;;2.38;;
30048;SDS011;16879;50.852;15.602;2022-08-04T13:58:56;2.80;;;2.60;;
30048;SDS011;16879;50.852;15.602;2022-08-04T14:01:25;2.50;;;2.40;;
30048;SDS011;16879;50.852;15.602;2022-08-04T14:04:01;2.85;;;2.65;;
30048;SDS011;16879;50.852;15.602;2022-08-04T14:06:34;2.95;;;2.70;;
30048;SDS011;16879;50.852;15.602;2022-08-04T14:11:46;3.83;;;2.85;;
30048;SDS011;16879;50.852;15.602;2022-08-04T14:14:14;3.55;;;3.20;;
30048;SDS011;16879;50.852;15.602;2022-08-04T14:17:05;2.80;;;2.60;;
30048;SDS011;16879;50.852;15.602;2022-08-04T14:27:21;2.63;;;2.42;;
30048;SDS011;16879;50.852;15.602;2022-08-04T14:29:48;3.13;;;2.67;;
30048;SDS011;16879;50.852;15.602;2022-08-04T14:32:14;3.05;;;2.08;;
30048;SDS011;16879;50.852;15.602;2022-08-04T14:34:40;2.13;;;2.03;;
30048;SDS011;16879;50.852;15.602;2022-08-04T14:37:09;2.60;;;2.40;;
30048;SDS011;16879;50.852;15.602;2022-08-04T14:42:11;6.90;;;2.63;;
30048;SDS011;16879;50.852;15.602;2022-08-04T14:44:53;2.47;;;2.38;;
30048;SDS011;16879;50.852;15.602;2022-08-04T14:50:06;2.95;;;2.67;;
30048;SDS011;16879;50.852;15.602;2022-08-04T14:52:33;4.95;;;2.65;;
30048;SDS011;16879;50.852;15.602;2022-08-04T14:55:13;2.92;;;2.72;;
30048;SDS011;16879;50.852;15.602;2022-08-04T14:57:49;2.75;;;2.53;;
30048;SDS011;16879;50.852;15.602;2022-08-04T15:00:29;2.88;;;2.33;;
30048;SDS011;16879;50.852;15.602;2022-08-04T15:03:04;2.90;;;2.67;;
30048;SDS011;16879;50.852;15.602;2022-08-04T15:05:35;2.35;;;2.15;;
30048;SDS011;16879;50.852;15.602;2022-08-04T15:08:02;2.63;;;2.53;;
30048;SDS011;16879;50.852;15.602;2022-08-04T15:10:29;3.90;;;2.50;;
30048;SDS011;16879;50.852;15.602;2022-08-04T15:12:55;2.28;;;2.17;;
30048;SDS011;16879;50.852;15.602;2022-08-04T15:15:22;3.20;;;2.58;;
30048;SDS011;16879;50.852;15.602;2022-08-04T15:17:48;2.25;;;2.15;;
30048;SDS011;16879;50.852;15.602;2022-08-04T15:20:18;3.00;;;2.65;;
30048;SDS011;16879;50.852;15.602;2022-08-04T15:22:44;4.53;;;2.42;;
30048;SDS011;16879;50.852;15.602;2022-08-04T15:25:11;2.40;;;2.20;;
30048;SDS011;16879;50.852;15.602;2022-08-04T15:27:38;2.90;;;2.70;;
30048;SDS011;16879;50.852;15.602;2022-08-04T15:30:06;3.45;;;3.17;;
30048;SDS011;16879;50.852;15.602;2022-08-04T15:32:36;2.63;;;2.47;;
30048;SDS011;16879;50.852;15.602;2022-08-04T15:40:23;3.63;;;2.45;;
30048;SDS011;16879;50.852;15.602;2022-08-04T15:46:17;2.20;;;2.10;;
30048;SDS011;16879;50.852;15.602;2022-08-04T15:49:19;2.70;;;2.40;;
30048;SDS011;16879;50.852;15.602;2022-08-04T15:52:02;2.70;;;2.50;;
30048;SDS011;16879;50.852;15.602;2022-08-04T15:54:29;2.35;;;2.25;;
30048;SDS011;16879;50.852;15.602;2022-08-04T15:56:56;2.15;;;2.05;;
30048;SDS011;16879;50.852;15.602;2022-08-04T16:00:07;2.40;;;2.20;;
30048;SDS011;16879;50.852;15.602;2022-08-04T16:07:55;2.00;;;1.90;;
30048;SDS011;16879;50.852;15.602;2022-08-04T16:12:55;2.75;;;2.30;;
30048;SDS011;16879;50.852;15.602;2022-08-04T16:18:06;2.65;;;2.30;;
30048;SDS011;16879;50.852;15.602;2022-08-04T16:20:34;2.78;;;2.40;;
30048;SDS011;16879;50.852;15.602;2022-08-04T16:23:28;3.75;;;3.05;;
30048;SDS011;16879;50.852;15.602;2022-08-04T16:26:05;3.05;;;2.83;;
30048;SDS011;16879;50.852;15.602;2022-08-04T16:31:02;2.90;;;2.80;;
30048;SDS011;16879;50.852;15.602;2022-08-04T16:33:29;3.13;;;2.92;;
30048;SDS011;16879;50.852;15.602;2022-08-04T16:35:56;3.80;;;3.50;;
30048;SDS011;16879;50.852;15.602;2022-08-04T16:38:24;4.13;;;3.20;;
30048;SDS011;16879;50.852;15.602;2022-08-04T16:40:53;2.83;;;2.63;;
30048;SDS011;16879;50.852;15.602;2022-08-04T16:43:21;5.05;;;3.17;;
30048;SDS011;16879;50.852;15.602;2022-08-04T16:48:19;5.10;;;3.67;;
30048;SDS011;16879;50.852;15.602;2022-08-04T16:50:53;2.83;;;2.63;;
30048;SDS011;16879;50.852;15.602;2022-08-04T16:53:38;3.00;;;2.80;;
30048;SDS011;16879;50.852;15.602;2022-08-04T16:56:09;3.08;;;2.80;;
30048;SDS011;16879;50.852;15.602;2022-08-04T16:58:36;5.90;;;3.75;;
30048;SDS011;16879;50.852;15.602;2022-08-04T17:01:11;3.45;;;3.22;;
30048;SDS011;16879;50.852;15.602;2022-08-04T17:03:48;3.40;;;3.20;;
30048;SDS011;16879;50.852;15.602;2022-08-04T17:06:15;9.10;;;3.20;;
30048;SDS011;16879;50.852;15.602;2022-08-04T17:08:46;4.10;;;3.08;;
30048;SDS011;16879;50.852;15.602;2022-08-04T17:11:14;4.03;;;3.22;;
30048;SDS011;16879;50.852;15.602;2022-08-04T17:13:41;3.08;;;2.75;;
30048;SDS011;16879;50.852;15.602;2022-08-04T17:16:10;3.90;;;3.40;;
30048;SDS011;16879;50.852;15.602;2022-08-04T17:18:44;4.35;;;3.58;;
30048;SDS011;16879;50.852;15.602;2022-08-04T17:21:16;6.50;;;3.42;;
30048;SDS011;16879;50.852;15.602;2022-08-04T17:24:05;5.17;;;3.70;;
30048;SDS011;16879;50.852;15.602;2022-08-04T17:26:34;3.45;;;3.22;;
30048;SDS011;16879;50.852;15.602;2022-08-04T17:29:01;3.38;;;3.08;;
30048;SDS011;16879;50.852;15.602;2022-08-04T17:31:29;4.05;;;3.75;;
30048;SDS011;16879;50.852;15.602;2022-08-04T17:33:57;3.13;;;2.85;;
30048;SDS011;16879;50.852;15.602;2022-08-04T17:36:28;3.50;;;3.20;;
30048;SDS011;16879;50.852;15.602;2022-08-04T17:38:56;4.18;;;3.20;;
30048;SDS011;16879;50.852;15.602;2022-08-04T17:41:25;3.40;;;3.20;;
30048;SDS011;16879;50.852;15.602;2022-08-04T17:53:57;4.93;;;3.13;;
30048;SDS011;16879;50.852;15.602;2022-08-04T17:59:08;3.67;;;3.38;;
30048;SDS011;16879;50.852;15.602;2022-08-04T18:01:42;5.15;;;2.83;;
30048;SDS011;16879;50.852;15.602;2022-08-04T18:07:20;2.88;;;2.65;;
30048;SDS011;16879;50.852;15.602;2022-08-04T18:09:52;5.18;;;2.88;;
30048;SDS011;16879;50.852;15.602;2022-08-04T18:12:28;4.63;;;4.17;;
30048;SDS011;16879;50.852;15.602;2022-08-04T18:15:19;6.57;;;4.00;;
30048;SDS011;16879;50.852;15.602;2022-08-04T18:17:47;4.80;;;4.18;;
30048;SDS011;16879;50.852;15.602;2022-08-04T18:20:17;5.10;;;4.03;;
30048;SDS011;16879;50.852;15.602;2022-08-04T18:22:44;5.03;;;3.53;;
30048;SDS011;16879;50.852;15.602;2022-08-04T18:25:12;8.57;;;3.80;;
30048;SDS011;16879;50.852;15.602;2022-08-04T18:27:47;3.85;;;3.53;;
30048;SDS011;16879;50.852;15.602;2022-08-04T18:30:13;6.05;;;4.10;;
30048;SDS011;16879;50.852;15.602;2022-08-04T18:32:39;3.65;;;3.08;;
30048;SDS011;16879;50.852;15.602;2022-08-04T18:35:05;5.90;;;3.80;;
30048;SDS011;16879;50.852;15.602;2022-08-04T18:37:31;4.70;;;3.30;;
30048;SDS011;16879;50.852;15.602;2022-08-04T18:39:58;6.90;;;3.67;;
30048;SDS011;16879;50.852;15.602;2022-08-04T18:42:23;3.85;;;3.40;;
30048;SDS011;16879;50.852;15.602;2022-08-04T18:44:51;3.88;;;3.30;;
30048;SDS011;16879;50.852;15.602;2022-08-04T18:47:21;3.60;;;3.30;;
30048;SDS011;16879;50.852;15.602;2022-08-04T18:49:49;6.75;;;3.13;;
30048;SDS011;16879;50.852;15.602;2022-08-04T18:52:16;7.50;;;3.35;;
30048;SDS011;16879;50.852;15.602;2022-08-04T18:54:42;3.53;;;3.22;;
30048;SDS011;16879;50.852;15.602;2022-08-04T18:57:08;3.72;;;3.42;;
30048;SDS011;16879;50.852;15.602;2022-08-04T18:59:34;3.47;;;3.08;;
30048;SDS011;16879;50.852;15.602;2022-08-04T19:02:00;3.15;;;2.75;;
30048;SDS011;16879;50.852;15.602;2022-08-04T19:04:26;4.80;;;3.78;;
30048;SDS011;16879;50.852;15.602;2022-08-04T19:06:51;3.50;;;3.20;;
30048;SDS011;16879;50.852;15.602;2022-08-04T19:09:17;4.40;;;3.65;;
30048;SDS011;16879;50.852;15.602;2022-08-04T19:11:43;5.68;;;3.15;;
30048;SDS011;16879;50.852;15.602;2022-08-04T19:14:09;5.63;;;3.28;;
30048;SDS011;16879;50.852;15.602;2022-08-04T19:16:35;2.55;;;2.35;;
30048;SDS011;16879;50.852;15.602;2022-08-04T19:19:02;3.00;;;2.80;;
30048;SDS011;16879;50.852;15.602;2022-08-04T19:21:29;3.35;;;3.10;;
30048;SDS011;16879;50.852;15.602;2022-08-04T19:23:55;3.55;;;3.25;;
30048;SDS011;16879;50.852;15.602;2022-08-04T19:26:22;5.90;;;3.90;;
30048;SDS011;16879;50.852;15.602;2022-08-04T19:28:49;4.13;;;3.65;;
30048;SDS011;16879;50.852;15.602;2022-08-04T19:31:16;4.30;;;3.47;;
30048;SDS011;16879;50.852;15.602;2022-08-04T19:33:42;4.00;;;3.65;;
30048;SDS011;16879;50.852;15.602;2022-08-04T19:36:08;3.95;;;3.65;;
30048;SDS011;16879;50.852;15.602;2022-08-04T19:38:35;6.53;;;4.10;;
30048;SDS011;16879;50.852;15.602;2022-08-04T19:41:02;6.47;;;4.22;;